Date,TemperatureHighF,TemperatureAvgF,TemperatureLowF,DewpointHighF,DewpointAvgF,DewpointLowF,HumidityHigh,HumidityAvg,HumidityLow,PressureMaxIn,PressureMinIn,WindSpeedMaxMPH,WindSpeedAvgMPH,GustSpeedMaxMPH,PrecipitationSumIn
2013-1-1,27,20,10,22,15,7,91,82,64,30.30,30.14,3,0,7,0.03
2013-1-2,35,21,8,22,14,6,91,79,55,30.30,30.18,5,1,9,0.03
2013-1-3,39,28,17,30,23,15,95,83,66,30.42,30.25,5,1,10,0.00
2013-1-4,41,27,15,26,21,13,96,78,55,30.43,30.31,6,1,16,0.01
2013-1-5,39,33,24,35,29,21,94,87,78,30.31,30.12,4,1,12,0.03
2013-1-6,39,30,19,32,23,17,91,78,54,30.38,30.13,10,2,16,0.00
2013-1-7,50,34,19,29,24,16,92,70,42,30.37,30.13,10,1,13,0.00
2013-1-8,56,43,32,36,28,25,78,59,34,30.15,30.03,6,1,12,0.00
2013-1-9,58,44,32,40,34,28,96,70,38,30.43,30.16,5,1,10,0.00
2013-1-10,48,44,40,47,38,26,97,82,46,30.40,29.76,10,2,16,0.16
2013-1-11,62,54,44,51,48,43,98,82,61,29.81,29.66,10,2,17,0.00
2013-1-12,57,41,27,47,32,23,92,72,50,30.00,29.71,5,2,14,0.07
2013-1-13,27,21,12,25,17,9,92,84,70,30.39,29.97,6,1,12,0.00
2013-1-14,31,17,8,18,12,5,93,80,55,30.53,30.40,3,0,6,0.04
2013-1-16,42,33,13,25,23,10,95,66,49,30.15,30.05,14,2,16,0.06
2013-1-17,46,33,23,30,26,20,91,76,47,30.49,30.16,6,1,13,0.04
2013-1-18,54,37,23,32,27,21,92,68,42,30.49,30.10,5,1,16,0.00
2013-1-19,60,49,41,39,35,28,71,58,45,30.16,29.94,10,2,19,0.00
2013-1-20,42,31,22,31,18,12,81,60,45,30.36,30.17,11,1,14,0.00
2013-1-21,25,18,16,13,6,-2,79,58,34,30.43,30.35,12,2,16,0.00
2013-1-22,24,18,15,10,5,1,81,56,44,30.50,30.37,2,1,7,0.00
2013-1-23,46,28,13,25,17,10,86,67,42,30.41,30.19,5,1,12,0.00
2013-1-24,27,21,12,15,9,5,75,59,42,30.58,30.25,7,2,15,0.00
2013-1-25,43,33,26,23,18,12,70,55,41,30.26,30.14,6,1,13,0.00
2013-1-26,50,34,23,24,21,18,82,61,36,30.39,30.25,5,1,9,0.00
2013-1-28,76,70,65,61,59,57,81,70,59,29.79,29.73,9,2,21,0.00
2013-1-29,69,60,50,61,56,49,97,88,70,29.73,29.39,6,1,20,1.30
2013-1-30,51,33,25,50,30,18,97,88,74,29.95,29.33,11,4,21,0.07
2013-1-31,31,22,10,22,14,1,81,71,59,30.47,29.95,8,3,21,0.01
2013-2-1,29,18,6,16,6,1,81,62,45,30.52,30.23,4,1,14,0.00
2013-2-2,40,33,28,29,24,16,86,69,57,30.22,30.04,9,2,15,0.00
2013-2-3,45,34,27,30,23,17,93,66,35,30.24,30.06,7,2,18,0.00
2013-2-4,56,39,24,36,28,21,88,68,45,29.97,29.81,7,1,14,0.00
2013-2-5,40,27,21,30,24,18,93,87,66,30.14,29.91,1,0,5,0.00
2013-2-6,61,43,26,36,29,24,96,64,29,30.19,29.97,10,1,15,0.00
2013-2-7,48,44,35,47,40,31,96,86,54,30.11,29.86,6,1,15,0.29
2013-2-8,36,33,31,34,30,28,91,90,88,30.36,30.11,4,1,12,0.00
2013-2-9,47,37,31,35,31,28,92,80,58,30.33,29.94,8,2,15,0.10
2013-2-10,62,48,37,53,39,28,97,75,32,29.91,29.48,13,4,31,0.24
2013-2-11,50,39,28,31,27,25,88,64,44,30.14,29.81,17,4,24,0.00
2013-2-12,44,34,24,32,27,22,95,79,58,30.17,29.97,3,0,6,0.00
2013-2-13,51,40,29,34,31,26,89,72,49,29.95,29.82,10,2,15,0.00
2013-2-14,53,42,35,36,32,28,86,69,49,30.09,29.81,6,1,17,0.00
2013-2-15,42,33,21,28,19,13,78,59,35,30.31,30.09,9,1,12,0.00
2013-2-16,38,26,15,21,16,12,88,67,40,30.32,30.17,5,1,12,0.00
2013-2-17,56,42,29,33,26,20,69,53,36,30.17,29.81,7,2,16,0.00
2013-2-18,56,48,29,50,39,21,91,72,61,29.96,29.47,5,2,21,0.21
2013-2-19,33,26,20,21,15,11,75,63,44,30.34,29.97,10,3,20,0.00
2013-2-20,27,22,14,16,13,8,82,70,60,30.44,30.28,6,2,12,0.00
2013-2-21,29,25,23,28,21,16,95,84,72,30.32,29.81,11,4,19,0.00
2013-2-22,33,28,16,32,24,13,96,87,76,30.09,29.80,11,2,16,0.01
2013-2-23,36,21,10,23,16,7,95,79,55,30.09,30.01,4,0,9,0.34
2013-2-24,52,31,9,31,21,6,96,69,38,30.12,30.00,4,1,9,0.08
2013-2-25,44,36,27,33,29,23,95,77,58,30.05,29.65,13,4,24,0.06
2013-2-26,34,33,32,34,32,31,100,96,94,29.74,29.38,6,1,14,0.23
2013-2-27,33,32,29,31,29,27,96,92,87,29.95,29.74,7,2,19,0.05
2013-2-28,34,31,29,29,28,26,92,87,81,30.16,29.96,10,2,13,0.09
2013-3-1,35,30,24,29,26,20,88,84,78,30.27,30.13,5,1,10,0.08
2013-3-2,37,27,16,25,20,13,90,77,55,30.34,30.25,5,1,11,0.18
2013-3-3,39,27,12,26,19,9,95,75,55,30.24,29.97,7,1,12,0.02
2013-3-5,36,33,31,26,24,22,78,72,62,30.23,30.03,16,6,25,0.06
2013-3-6,41,31,20,26,22,17,87,70,52,30.42,30.24,5,1,15,0.00
2013-3-7,49,34,19,30,25,16,93,71,47,30.40,30.26,6,2,13,0.00
2013-3-8,53,43,32,34,32,28,86,67,48,30.33,30.12,5,2,13,0.00
2013-3-9,67,52,40,49,40,32,94,69,39,30.10,29.69,15,2,19,0.52
2013-3-10,56,50,35,53,48,34,97,93,82,29.77,29.57,10,2,23,0.64
2013-3-11,35,32,29,33,28,24,94,86,74,30.00,29.74,13,4,20,0.01
2013-3-12,46,30,24,33,25,22,93,83,61,30.26,30.00,7,2,15,0.00
2013-3-13,47,34,25,24,21,19,82,61,36,30.47,30.26,6,2,16,0.00
2013-3-14,67,45,27,44,32,22,88,62,40,30.39,30.04,10,1,15,0.00
2013-3-15,79,56,34,51,42,33,97,67,32,30.07,29.65,6,1,15,0.00
2013-3-16,61,46,38,49,39,34,88,79,63,30.05,29.64,8,2,14,0.00
2013-3-17,37,35,34,34,32,31,95,91,83,30.06,29.77,14,4,19,0.36
2013-3-18,37,35,35,36,34,33,97,96,95,29.80,29.72,9,2,15,0.01
2013-3-19,46,37,30,29,20,15,87,52,29,30.23,30.04,5,1,19,0.00
2013-3-20,36,31,21,32,20,11,95,66,38,30.32,30.14,9,2,21,0.00
2013-3-21,42,32,19,27,18,12,82,59,36,30.15,29.96,5,1,11,0.00
2013-3-22,41,36,32,31,27,22,82,69,61,30.02,29.96,4,1,9,0.00
2013-3-23,50,41,35,37,31,28,90,68,48,30.03,29.85,9,3,18,0.10
2013-3-24,38,32,30,35,30,28,96,94,91,29.95,29.67,11,3,20,0.17
2013-3-25,34,30,27,32,27,24,93,88,80,30.26,29.95,10,2,17,0.16
2013-3-26,42,32,22,28,24,20,93,75,51,30.39,30.26,6,1,12,0.19
2013-3-27,47,35,20,33,26,18,95,74,49,30.40,30.26,6,0,11,0.01
2013-3-28,39,38,37,33,32,31,80,77,76,30.31,30.27,3,1,9,0.00
2013-3-31,58,52,47,40,37,33,60,57,52,29.93,29.89,1,0,9,0.01
2013-4-1,52,43,35,34,29,24,83,61,36,30.22,29.94,6,2,16,0.00
2013-4-2,52,44,32,28,25,24,77,50,36,30.35,30.27,6,2,14,0.00
2013-4-3,54,42,30,28,26,24,85,56,34,30.40,30.24,9,3,16,0.00
2013-4-4,62,46,32,36,30,27,86,58,31,30.24,30.05,4,1,12,0.00
2013-4-5,71,54,34,44,39,30,90,60,36,30.18,29.95,4,1,11,0.00
2013-4-6,74,63,53,52,44,38,67,51,39,29.94,29.65,10,3,26,0.00
2013-4-7,78,63,45,56,50,42,97,67,32,29.87,29.68,3,0,14,0.12
2013-4-8,80,67,57,62,58,55,94,75,51,29.77,29.66,6,1,17,0.06
2013-4-9,77,70,65,64,61,58,80,74,63,29.81,29.70,9,2,17,0.00
2013-4-10,70,68,57,63,61,54,90,79,74,29.73,29.68,2,1,12,0.22
2013-4-11,39,38,38,33,33,33,82,80,78,29.74,29.73,2,0,7,0.00
2013-4-12,44,39,34,35,32,29,87,78,69,30.00,29.73,10,2,15,0.00
2013-4-13,62,47,31,42,36,29,95,68,46,30.08,29.82,5,1,12,0.00
2013-4-14,81,66,50,58,48,40,93,57,30,29.82,29.49,10,3,22,0.22
2013-4-15,59,53,49,58,51,47,95,92,81,29.89,29.67,9,1,21,0.22
2013-4-16,47,45,42,44,43,41,96,93,90,30.13,30.09,10,3,16,0.39
2013-4-17,84,57,47,72,54,45,98,90,63,30.10,29.60,9,3,20,0.08
2013-4-18,72,52,39,67,49,31,98,90,73,29.82,29.47,10,3,23,1.78
2013-4-19,48,40,36,32,30,29,77,69,49,29.93,29.80,18,5,23,0.00
2013-4-20,58,52,38,36,34,31,82,51,38,30.29,30.20,6,2,11,0.00
2013-4-21,67,54,45,44,38,32,66,56,40,30.33,30.15,9,3,16,0.00
2013-4-22,73,60,47,48,42,39,76,54,30,30.20,29.91,12,1,14,0.00
2013-4-23,58,46,38,50,42,36,95,88,60,30.08,29.89,7,1,13,0.48
2013-4-24,53,43,34,36,33,31,96,73,44,30.24,30.06,9,2,13,0.03
2013-4-25,61,45,35,40,34,31,88,68,38,30.33,30.23,4,1,14,0.00
2013-4-26,62,54,49,50,47,45,90,80,55,30.29,30.20,7,2,15,0.08
2013-4-27,52,50,48,51,49,46,97,96,89,30.24,29.96,4,2,11,0.29
2013-4-28,67,56,49,56,51,48,97,86,63,29.98,29.84,4,1,10,0.00
2013-4-29,87,69,50,67,57,48,95,71,40,29.86,29.66,8,2,14,0.00
2013-4-30,86,74,63,62,57,52,88,58,32,29.85,29.70,9,2,15,0.00
2013-5-1,86,73,58,62,56,51,86,57,38,29.99,29.87,6,1,12,0.00
2013-5-2,39,38,37,36,36,35,93,92,91,30.20,30.17,7,2,12,0.14
2013-5-3,39,37,36,38,36,34,96,95,93,30.15,29.86,4,1,13,0.78
2013-5-4,51,42,36,43,39,35,97,89,75,30.02,29.82,6,1,10,0.00
2013-5-5,65,52,40,56,49,39,97,89,70,30.03,29.92,7,1,13,0.38
2013-5-6,77,63,54,60,55,52,97,78,48,30.01,29.93,9,1,13,0.00
2013-5-7,84,68,49,59,53,47,97,64,33,30.02,29.94,5,0,10,0.00
2013-5-8,78,65,53,61,56,51,97,77,48,30.00,29.92,7,1,14,0.00
2013-5-9,76,65,60,65,60,57,95,86,67,29.92,29.81,7,0,12,0.30
2013-5-10,61,59,50,60,56,48,96,90,84,30.00,29.82,3,0,9,0.01
2013-5-11,67,56,44,55,43,33,97,66,34,30.18,29.99,7,1,18,0.01
2013-5-12,65,52,35,40,34,30,92,56,29,30.25,30.13,7,1,13,0.00
2013-5-13,78,60,40,52,44,37,93,61,34,30.20,29.96,4,1,10,0.00
2013-5-14,91,75,56,64,55,51,85,53,28,29.95,29.76,13,2,20,0.00
2013-5-15,89,77,66,68,61,53,80,58,47,29.87,29.76,6,1,15,0.00
2013-5-16,83,71,62,69,64,54,91,78,57,29.88,29.80,2,0,13,0.05
2013-5-17,81,71,62,67,62,55,86,74,61,29.90,29.84,6,0,9,0.00
2013-5-18,86,74,63,70,66,61,96,78,57,29.93,29.78,4,1,14,0.00
2013-5-19,90,79,70,74,69,62,93,74,52,29.83,29.57,10,2,16,0.02
2013-5-20,78,68,62,70,64,60,96,86,68,29.82,29.64,7,2,27,0.70
2013-5-21,75,68,62,65,62,60,97,84,65,29.74,29.63,6,1,13,0.00
2013-5-22,70,64,58,60,57,55,94,79,63,29.86,29.65,8,2,16,0.00
2013-5-23,67,61,52,58,54,50,91,79,69,30.19,29.87,4,1,13,0.00
2013-5-24,72,61,50,53,48,44,97,66,37,30.38,30.19,7,1,14,0.00
2013-5-25,58,56,55,48,45,43,74,66,61,30.23,30.19,4,1,12,0.01
2013-5-26,81,72,69,71,67,66,94,85,67,29.95,29.92,7,1,15,0.22
2013-5-27,71,67,62,68,65,61,97,93,85,29.96,29.73,8,1,17,1.06
2013-5-28,79,73,68,72,68,65,92,86,78,29.83,29.69,7,1,14,0.01
2013-5-29,85,76,68,73,67,63,92,75,55,29.87,29.70,11,2,16,0.00
2013-5-30,83,70,64,71,66,62,97,86,63,29.78,29.68,7,2,18,1.31
2013-5-31,81,66,62,76,64,61,98,95,80,29.82,29.64,7,1,18,0.54
2013-6-1,62,62,62,61,61,61,95,95,95,29.90,29.66,0,0,0,0.00
2013-6-2,62,62,62,61,61,61,95,95,95,30.02,29.91,0,0,0,0.00
2013-6-3,75,68,60,57,55,54,79,65,48,29.97,29.93,4,1,11,0.00
2013-6-4,59,59,59,54,53,53,82,82,81,30.02,29.92,3,3,6,0.00
2013-6-5,77,66,59,67,60,53,95,83,69,30.00,29.84,5,1,6,0.17
2013-6-6,78,69,61,64,60,55,95,75,48,29.89,29.83,4,1,14,0.00
2013-6-7,61,61,61,55,55,55,82,82,82,29.92,29.87,0,0,0,0.00
2013-6-8,81,78,69,62,58,57,76,51,45,29.93,29.81,5,1,11,0.00
2013-6-9,79,77,66,66,59,57,89,56,47,29.85,29.71,2,1,7,0.03
2013-6-10,86,71,66,67,64,62,90,79,52,29.85,29.74,4,0,12,0.00
2013-6-11,92,80,67,73,69,64,90,72,50,29.87,29.79,5,1,15,0.00
2013-6-12,92,88,83,74,74,73,75,62,56,29.85,29.68,5,0,20,0.00
2013-6-13,88,82,72,74,69,60,75,66,45,29.96,29.76,3,0,10,0.00
2013-6-14,86,78,72,68,64,61,81,65,52,30.02,29.90,4,1,12,0.00
2013-6-15,89,74,68,78,68,65,95,82,70,30.02,29.88,4,1,20,0.52
2013-6-16,68,68,68,66,66,66,95,95,95,29.99,29.87,0,0,0,0.00
2013-6-17,68,68,68,66,66,66,95,95,95,29.96,29.89,0,0,0,0.00
2013-6-28,89,82,72,64,61,59,69,50,40,29.82,29.71,3,1,16,0.00
2013-6-29,82,72,65,67,62,60,90,71,50,29.75,29.66,6,1,25,0.11
2013-6-30,78,70,65,65,63,62,90,78,59,29.94,29.76,5,1,17,0.01
2013-7-1,82,73,66,63,59,54,84,65,40,29.99,29.93,7,2,18,0.00
2013-7-2,82,71,63,61,56,54,88,61,40,30.02,29.96,14,2,20,0.00
2013-7-3,87,71,60,63,59,57,90,70,41,30.03,29.95,3,0,7,0.00
2013-7-4,87,73,60,66,61,57,92,69,40,30.03,29.94,3,0,10,0.00
2013-7-5,89,77,67,68,64,62,85,68,45,30.01,29.92,4,0,13,0.00
2013-7-6,93,77,66,72,66,61,86,71,45,29.98,29.89,5,0,7,0.00
2013-7-7,92,81,71,74,69,64,82,69,50,29.97,29.91,5,1,11,0.00
2013-7-8,79,78,78,69,68,68,73,71,71,29.99,29.96,1,0,5,0.00
2013-7-9,95,89,81,75,74,72,76,61,50,29.93,29.83,4,1,13,0.00
2013-7-10,94,81,73,73,71,65,78,73,45,29.96,29.83,0,0,7,0.00
2013-7-11,88,71,67,65,62,62,85,75,47,30.03,29.97,2,0,9,0.00
2013-7-12,88,75,66,64,62,60,85,67,41,30.08,29.98,5,1,11,0.00
2013-7-13,86,70,65,70,62,59,89,77,49,30.05,29.96,1,0,4,0.00
2013-7-14,90,73,66,70,65,62,88,78,51,30.08,30.01,3,0,11,0.00
2013-7-15,90,78,73,77,71,68,94,81,60,30.16,30.07,4,0,12,0.12
2013-7-16,95,80,73,76,73,71,95,80,50,30.24,30.16,2,0,7,0.00
2013-7-17,96,79,77,76,73,72,88,82,45,30.27,30.14,0,0,4,0.00
2013-7-18,98,82,76,76,73,71,89,78,45,30.17,29.95,1,0,5,0.00
2013-7-19,96,80,76,74,71,70,82,77,43,29.95,29.80,3,0,7,0.00
2013-7-20,92,78,75,86,70,67,83,78,60,29.88,29.79,3,0,7,0.00
2013-7-21,86,75,70,74,70,68,96,84,64,29.88,29.79,2,0,11,0.90
2013-7-22,93,77,69,78,71,68,97,84,58,29.83,29.70,2,0,10,0.00
2013-7-23,91,77,70,74,70,65,88,80,55,29.86,29.72,4,0,14,0.00
2013-7-24,84,72,66,64,63,60,85,75,49,30.00,29.87,11,1,11,0.00
2013-7-25,86,73,62,66,62,59,90,71,47,30.08,29.99,3,0,7,0.00
2013-7-26,73,71,71,64,63,63,77,77,72,30.01,29.92,0,0,4,0.00
2013-7-27,79,71,57,63,59,53,89,67,44,30.04,29.93,9,1,11,0.00
2013-7-28,57,56,56,53,52,52,89,87,86,30.05,29.96,0,0,2,0.00
2013-7-29,56,56,56,52,52,52,87,87,87,30.13,30.05,0,0,0,0.00
2013-7-30,88,80,71,76,73,68,95,81,65,30.02,29.92,3,0,6,0.90
2013-7-31,79,74,65,71,69,63,96,87,71,30.03,29.97,4,0,10,0.00
2013-8-1,65,64,64,63,62,62,95,95,93,30.07,29.96,0,0,0,0.00
2013-8-2,78,67,64,72,65,62,96,93,75,29.96,29.87,7,0,12,0.50
2013-8-3,87,74,70,75,70,64,97,87,62,30.09,29.89,8,0,12,0.00
2013-8-4,81,73,67,69,65,63,89,78,60,30.13,30.00,3,1,7,0.00
2013-8-5,86,76,70,76,71,67,92,85,74,30.03,29.80,7,1,12,0.00
2013-8-6,73,72,72,70,70,70,93,93,92,29.87,29.77,0,0,5,0.00
2013-8-7,86,76,72,77,72,69,93,85,68,29.88,29.78,6,1,14,0.00
2013-8-8,83,74,70,72,69,67,94,86,69,29.95,29.86,5,2,11,0.00
2013-8-9,81,74,67,73,70,65,94,88,75,30.04,29.93,3,0,9,0.02
2013-8-10,88,76,67,68,64,60,95,71,42,30.14,30.04,9,1,14,0.00
2013-8-11,92,76,61,70,63,58,89,67,38,30.11,29.99,4,0,7,0.00
2013-8-12,79,73,68,75,68,64,97,85,74,30.01,29.90,4,0,6,0.02
2013-8-13,68,65,65,66,64,64,96,96,94,30.11,29.95,0,0,0,0.00
2013-8-14,65,65,65,64,64,64,96,96,96,30.20,30.10,0,0,0,0.00
2013-8-15,65,65,65,64,64,64,96,96,96,30.16,30.04,0,0,0,0.00
2013-8-16,80,69,59,64,61,55,96,80,46,30.14,30.07,5,0,12,0.00
2013-8-17,83,68,57,62,58,54,91,72,47,30.17,30.06,7,1,12,0.00
2013-8-18,87,73,61,68,62,57,89,71,49,30.14,30.03,2,0,7,0.00
2013-8-22,94,86,76,77,74,70,89,69,48,30.01,29.96,1,0,7,0.00
2013-8-23,96,83,72,77,72,70,93,73,49,30.04,29.96,3,0,6,0.00
2013-8-24,76,74,74,71,70,70,86,86,83,30.13,30.02,0,0,1,0.00
2013-8-25,74,74,74,70,70,70,86,86,86,30.24,30.13,0,0,0,0.00
2013-8-26,74,74,74,70,70,70,86,86,86,30.19,30.05,0,0,0,0.00
2013-8-27,74,74,74,70,70,70,86,86,86,30.08,29.97,0,0,0,0.00
2013-8-28,74,74,74,70,70,70,86,86,86,30.04,29.98,0,0,0,0.00
2013-8-29,74,74,74,70,70,70,86,86,86,30.06,29.94,0,0,0,0.00
2013-8-30,74,74,74,70,70,70,86,86,86,29.96,29.82,0,0,0,0.00
2013-8-31,74,74,74,70,70,70,86,86,86,29.84,29.74,0,0,0,0.00
2013-9-1,95,79,74,74,69,64,86,74,41,29.85,29.73,3,0,7,0.00
2013-9-2,90,76,63,66,61,56,80,61,38,29.95,29.83,5,0,11,0.00
2013-9-3,90,71,58,62,56,54,86,63,30,30.06,29.94,5,0,10,0.00
2013-9-4,92,72,59,66,58,54,88,67,32,30.12,30.01,1,0,6,0.00
2013-9-5,92,74,60,70,63,58,93,71,38,30.16,30.06,4,0,7,0.00
2013-9-6,93,78,68,69,63,59,86,63,34,30.12,29.97,4,0,9,0.00
2013-9-7,97,80,66,70,66,61,85,65,38,29.99,29.85,3,0,12,0.00
2013-9-8,78,76,76,68,68,67,78,76,70,29.90,29.84,0,0,0,0.00
2013-9-11,92,82,77,72,71,69,84,73,48,30.01,29.98,0,0,1,0.00
2013-9-12,90,76,65,71,59,50,83,57,44,30.06,29.95,3,1,11,0.00
2013-9-13,79,69,57,58,51,47,71,55,38,30.11,30.02,5,1,13,0.00
2013-9-14,57,56,56,47,47,47,72,70,69,30.07,30.06,0,0,2,0.00
2013-9-16,70,66,61,61,58,56,83,75,68,30.22,30.15,5,2,15,0.00
2013-9-17,70,64,61,66,61,55,96,89,79,30.20,30.01,4,1,9,0.17
2013-9-18,88,75,67,74,69,66,96,83,62,30.01,29.86,6,1,12,0.00